• Join FlightAware (Why Join?)
  • Login
  • US Flag 
08:12PM EST


 

Airport Tracker/Info


-or-


 

Live Flight TrackerFlight Track Log ✈ EJA929 ✈ 21-Jul-2013 ✈ KSBM - KMDW

Flight Track Log - Related Links

Times and Time Zones

All times are in EDT time to prevent confusion due to time zone crossing. See the EJA929 flight status page for this flight to view local times or setup timezone preferences in your user account.

Time Position Orientation Groundspeed Altitude Reporting Facility
EDT Latitude Longitude Course Direction KTS MPH feet Rate Location/Type
02:04PM 43.8000 -87.8333 270° West 366 421 2,700  Level KMKE
02:05PM 43.8000 -87.8833 270° West 204 235 5,300 2,520 Climbing KMKE
02:06PM 43.7600 -87.8897 187° South 221 254 7,500 3,120 Climbing Chicago Center
02:07PM 43.6947 -87.8764 172° South 233 268 10,700 2,520 Climbing Chicago Center
02:08PM 43.6142 -87.8622 173° South 281 323 12,800 1,140 Climbing Chicago Center
02:09PM 43.5114 -87.8450 173° South 363 418 13,100 120 Climbing Chicago Center
02:10PM 43.3772 -87.7997 166° South 422 486 13,100 -60 Level Chicago Center
02:11PM 43.2614 -87.7550 164° South 427 491 13,000 -540 Descending Chicago Center
02:12PM 43.1475 -87.7103 164° South 425 489 12,000 -840 Descending Chicago Center
02:13PM 43.0322 -87.6678 165° South 426 490 11,300 -540 Descending Chicago Center
02:14PM 42.9217 -87.6283 165° South 415 478 10,900 -360 Descending Chicago Center
02:15PM 42.8383 -87.5967 164° South 324 373 10,600 -1,020 Descending Chicago Center
02:16PM 42.7442 -87.5761 171° South 296 341 8,900 -2,040 Descending Chicago Center
02:17PM 42.6642 -87.5672 175° South 290 334 6,500 -2,280 Descending Chicago Center
02:18PM 42.5856 -87.5619 177° South 284 327 4,200 -1,260 Descending Chicago Center
02:19PM 42.5108 -87.5561 177° South 273 314 4,000 -120 Descending Chicago Center
02:20PM 42.4361 -87.5492 176° South 269 310 4,000  Level Chicago Center
02:21PM 42.3622 -87.5219 165° South 272 313 4,000 -60 Level Chicago Center
02:22PM 42.2786 -87.5150 176° South 273 314 3,900  Descending Chicago Center
02:23PM 42.2042 -87.5122 178° South 269 310 4,000  Climbing Chicago Center
02:24PM 42.1297 -87.5072 177° South 268 308 4,000  Level Chicago Center
02:25PM 42.0547 -87.5028 177° South 269 310 4,000  Level Chicago Center
02:26PM 41.9661 -87.4967 177° South 269 310 4,000 -60 Level Chicago Center
02:27PM 41.8908 -87.4928 178° South 269 310 3,900 -60 Descending Chicago Center
02:28PM 41.8267 -87.5547 216° Southwest 271 312 3,900  Level Chicago Center
02:29PM 41.7725 -87.6100 217° Southwest 267 307 4,000  Climbing Chicago Center
02:31PM 41.7217 -87.6739 223° Southwest 259 298 3,900 -720 Descending Chicago Center
02:32PM 41.6939 -87.7467 243° Southwest 216 249 2,600 -960 Descending Chicago Center
02:33PM 41.7258 -87.8000 309° West 196 226 1,900 -720 Descending Chicago Center
02:34PM 41.7639 -87.7800 21° North 173 199 1,100 -540 Descending Chicago Center
02:35PM 41.7883 -87.7456 46° Northeast 165 190 900 -240 Descending Chicago Center